sensor_id;sensor_type;location;lat;lon;timestamp;pressure;altitude;pressure_sealevel;temperature;humidity
39843;BME280;25514;46.764;15.406;2022-09-09T00:09:25;96940.34;;;15.23;98.91
39843;BME280;25514;46.764;15.406;2022-09-09T00:11:52;96934.69;;;15.26;98.35
39843;BME280;25514;46.764;15.406;2022-09-09T00:16:57;96928.88;;;15.24;98.43
39843;BME280;25514;46.764;15.406;2022-09-09T00:19:30;96932.84;;;15.23;99.22
39843;BME280;25514;46.764;15.406;2022-09-09T00:22:18;96940.81;;;15.21;99.58
39843;BME280;25514;46.764;15.406;2022-09-09T00:25:08;96943.25;;;15.19;100.00
39843;BME280;25514;46.764;15.406;2022-09-09T00:27:34;96951.19;;;15.17;100.00
39843;BME280;25514;46.764;15.406;2022-09-09T00:32:30;96953.66;;;15.15;100.00
39843;BME280;25514;46.764;15.406;2022-09-09T00:35:00;96946.94;;;15.16;100.00
39843;BME280;25514;46.764;15.406;2022-09-09T00:37:27;96959.91;;;15.16;100.00
39843;BME280;25514;46.764;15.406;2022-09-09T00:39:54;96960.25;;;15.18;100.00
39843;BME280;25514;46.764;15.406;2022-09-09T00:43:06;96957.78;;;15.20;99.87
39843;BME280;25514;46.764;15.406;2022-09-09T00:47:55;96953.38;;;15.22;100.00
39843;BME280;25514;46.764;15.406;2022-09-09T00:58:06;96957.19;;;15.25;100.00
39843;BME280;25514;46.764;15.406;2022-09-09T01:00:43;96954.88;;;15.23;100.00
39843;BME280;25514;46.764;15.406;2022-09-09T01:03:29;96951.66;;;15.25;100.00
39843;BME280;25514;46.764;15.406;2022-09-09T01:10:53;96962.25;;;15.36;99.68
39843;BME280;25514;46.764;15.406;2022-09-09T01:13:26;96963.78;;;15.37;99.45
39843;BME280;25514;46.764;15.406;2022-09-09T01:15:52;96965.28;;;15.38;99.09
39843;BME280;25514;46.764;15.406;2022-09-09T01:18:21;96954.59;;;15.40;99.52
39843;BME280;25514;46.764;15.406;2022-09-09T01:20:55;96966.53;;;15.37;100.00
39843;BME280;25514;46.764;15.406;2022-09-09T01:28:41;96962.88;;;15.40;100.00
39843;BME280;25514;46.764;15.406;2022-09-09T01:31:08;96972.97;;;15.43;100.00
39843;BME280;25514;46.764;15.406;2022-09-09T01:33:36;96967.91;;;15.41;100.00
39843;BME280;25514;46.764;15.406;2022-09-09T01:38:27;96967.75;;;15.36;100.00
39843;BME280;25514;46.764;15.406;2022-09-09T01:40:53;96958.72;;;15.35;100.00
39843;BME280;25514;46.764;15.406;2022-09-09T01:43:21;96966.84;;;15.39;100.00
39843;BME280;25514;46.764;15.406;2022-09-09T01:45:48;96945.44;;;15.43;100.00
39843;BME280;25514;46.764;15.406;2022-09-09T01:48:14;96952.44;;;15.44;100.00
39843;BME280;25514;46.764;15.406;2022-09-09T01:50:40;96954.75;;;15.45;100.00
39843;BME280;25514;46.764;15.406;2022-09-09T01:53:05;96950.63;;;15.41;100.00
39843;BME280;25514;46.764;15.406;2022-09-09T01:55:32;96948.19;;;15.34;100.00
39843;BME280;25514;46.764;15.406;2022-09-09T01:58:44;96955.50;;;15.27;100.00
39843;BME280;25514;46.764;15.406;2022-09-09T02:00:57;96962.84;;;15.21;100.00
39843;BME280;25514;46.764;15.406;2022-09-09T02:03:26;96956.41;;;15.15;100.00
39843;BME280;25514;46.764;15.406;2022-09-09T02:08:22;96956.06;;;15.04;100.00
39843;BME280;25514;46.764;15.406;2022-09-09T02:10:51;96957.00;;;15.01;100.00
39843;BME280;25514;46.764;15.406;2022-09-09T02:13:19;96958.66;;;14.98;100.00
39843;BME280;25514;46.764;15.406;2022-09-09T02:18:11;96977.16;;;14.98;100.00
39843;BME280;25514;46.764;15.406;2022-09-09T02:20:38;96980.34;;;14.96;100.00
39843;BME280;25514;46.764;15.406;2022-09-09T02:23:04;96979.91;;;14.98;100.00
39843;BME280;25514;46.764;15.406;2022-09-09T02:25:30;96992.88;;;14.97;100.00
39843;BME280;25514;46.764;15.406;2022-09-09T02:27:56;96985.41;;;14.98;100.00
39843;BME280;25514;46.764;15.406;2022-09-09T02:30:23;96984.81;;;15.03;100.00
39843;BME280;25514;46.764;15.406;2022-09-09T02:32:50;96986.03;;;15.11;100.00
39843;BME280;25514;46.764;15.406;2022-09-09T02:35:20;96984.53;;;15.10;100.00
39843;BME280;25514;46.764;15.406;2022-09-09T02:37:46;96987.59;;;15.12;100.00
39843;BME280;25514;46.764;15.406;2022-09-09T02:40:12;96981.94;;;15.16;100.00
39843;BME280;25514;46.764;15.406;2022-09-09T02:42:48;96990.06;;;15.19;100.00
39843;BME280;25514;46.764;15.406;2022-09-09T02:45:14;96991.56;;;15.20;100.00
39843;BME280;25514;46.764;15.406;2022-09-09T02:47:44;96998.63;;;15.21;100.00
39843;BME280;25514;46.764;15.406;2022-09-09T02:50:56;96993.72;;;15.16;100.00
39843;BME280;25514;46.764;15.406;2022-09-09T02:53:18;96991.44;;;15.15;100.00
39843;BME280;25514;46.764;15.406;2022-09-09T02:55:54;96994.00;;;15.09;100.00
39843;BME280;25514;46.764;15.406;2022-09-09T02:58:22;96990.59;;;14.96;100.00
39843;BME280;25514;46.764;15.406;2022-09-09T03:00:48;96983.06;;;14.87;100.00
39843;BME280;25514;46.764;15.406;2022-09-09T03:03:14;96976.78;;;14.86;100.00
39843;BME280;25514;46.764;15.406;2022-09-09T03:05:41;96978.34;;;14.87;100.00
39843;BME280;25514;46.764;15.406;2022-09-09T03:08:07;96972.84;;;14.87;100.00
39843;BME280;25514;46.764;15.406;2022-09-09T03:10:32;96962.59;;;14.88;100.00
39843;BME280;25514;46.764;15.406;2022-09-09T03:12:58;96953.88;;;14.89;100.00
39843;BME280;25514;46.764;15.406;2022-09-09T03:15:23;96953.28;;;14.85;100.00
39843;BME280;25514;46.764;15.406;2022-09-09T03:17:48;96948.97;;;14.84;100.00
39843;BME280;25514;46.764;15.406;2022-09-09T03:20:14;96956.63;;;14.89;100.00
39843;BME280;25514;46.764;15.406;2022-09-09T03:22:39;96959.56;;;14.95;100.00
39843;BME280;25514;46.764;15.406;2022-09-09T03:25:05;96967.66;;;14.99;100.00
39843;BME280;25514;46.764;15.406;2022-09-09T03:27:31;96968.25;;;14.94;100.00
39843;BME280;25514;46.764;15.406;2022-09-09T03:29:57;96974.38;;;14.88;100.00
39843;BME280;25514;46.764;15.406;2022-09-09T03:32:23;96973.47;;;14.91;100.00
39843;BME280;25514;46.764;15.406;2022-09-09T03:34:51;96967.66;;;14.99;100.00
39843;BME280;25514;46.764;15.406;2022-09-09T03:37:17;96962.59;;;14.97;100.00
39843;BME280;25514;46.764;15.406;2022-09-09T03:39:42;96956.06;;;14.95;100.00
39843;BME280;25514;46.764;15.406;2022-09-09T03:42:08;96952.50;;;14.94;100.00
39843;BME280;25514;46.764;15.406;2022-09-09T03:44:33;96962.31;;;14.95;100.00
39843;BME280;25514;46.764;15.406;2022-09-09T03:46:58;96961.56;;;14.95;100.00
39843;BME280;25514;46.764;15.406;2022-09-09T03:49:27;96972.84;;;14.87;100.00
39843;BME280;25514;46.764;15.406;2022-09-09T03:51:54;96980.16;;;14.81;100.00
39843;BME280;25514;46.764;15.406;2022-09-09T03:54:19;96983.50;;;14.76;100.00
39843;BME280;25514;46.764;15.406;2022-09-09T03:56:44;96975.84;;;14.71;100.00
39843;BME280;25514;46.764;15.406;2022-09-09T03:59:10;96979.16;;;14.66;100.00
39843;BME280;25514;46.764;15.406;2022-09-09T04:01:36;96982.06;;;14.62;100.00
39843;BME280;25514;46.764;15.406;2022-09-09T04:04:01;96980.50;;;14.61;100.00
39843;BME280;25514;46.764;15.406;2022-09-09T04:06:27;96979.16;;;14.66;100.00
39843;BME280;25514;46.764;15.406;2022-09-09T04:08:52;96977.34;;;14.72;100.00
39843;BME280;25514;46.764;15.406;2022-09-09T04:11:18;96972.78;;;14.78;100.00
39843;BME280;25514;46.764;15.406;2022-09-09T04:13:44;96970.97;;;14.84;100.00
39843;BME280;25514;46.764;15.406;2022-09-09T04:16:10;96966.56;;;14.87;100.00
39843;BME280;25514;46.764;15.406;2022-09-09T04:18:36;96970.97;;;14.84;100.00
39843;BME280;25514;46.764;15.406;2022-09-09T04:21:01;96976.19;;;14.82;100.00
39843;BME280;25514;46.764;15.406;2022-09-09T04:23:28;96972.66;;;14.82;100.00
39843;BME280;25514;46.764;15.406;2022-09-09T04:25:54;96979.38;;;14.81;100.00
39843;BME280;25514;46.764;15.406;2022-09-09T04:28:21;96976.44;;;14.75;100.00
39843;BME280;25514;46.764;15.406;2022-09-09T04:30:46;96981.34;;;14.71;100.00
39843;BME280;25514;46.764;15.406;2022-09-09T04:33:12;96972.44;;;14.67;100.00
39843;BME280;25514;46.764;15.406;2022-09-09T04:35:38;96965.34;;;14.56;100.00
39843;BME280;25514;46.764;15.406;2022-09-09T04:38:04;96968.69;;;14.51;100.00
39843;BME280;25514;46.764;15.406;2022-09-09T04:40:30;96968.81;;;14.48;100.00
39843;BME280;25514;46.764;15.406;2022-09-09T04:42:59;96965.28;;;14.47;100.00
39843;BME280;25514;46.764;15.406;2022-09-09T04:45:24;96966.19;;;14.44;100.00
39843;BME280;25514;46.764;15.406;2022-09-09T04:47:51;96973.03;;;14.39;100.00
39843;BME280;25514;46.764;15.406;2022-09-09T04:50:16;96974.72;;;14.37;100.00
39843;BME280;25514;46.764;15.406;2022-09-09T04:52:41;96973.94;;;14.36;100.00
39843;BME280;25514;46.764;15.406;2022-09-09T04:55:07;96971.97;;;14.37;100.00
39843;BME280;25514;46.764;15.406;2022-09-09T04:57:32;96970.44;;;14.36;100.00
39843;BME280;25514;46.764;15.406;2022-09-09T04:59:59;96974.28;;;14.38;100.00
39843;BME280;25514;46.764;15.406;2022-09-09T05:02:25;96981.19;;;14.43;100.00
39843;BME280;25514;46.764;15.406;2022-09-09T05:04:50;96989.28;;;14.47;100.00
39843;BME280;25514;46.764;15.406;2022-09-09T05:07:16;96980.13;;;14.50;100.00
39843;BME280;25514;46.764;15.406;2022-09-09T05:09:41;96985.19;;;14.51;100.00
39843;BME280;25514;46.764;15.406;2022-09-09T05:12:06;96978.03;;;14.54;100.00
39843;BME280;25514;46.764;15.406;2022-09-09T05:14:33;96977.88;;;14.57;100.00
39843;BME280;25514;46.764;15.406;2022-09-09T05:16:58;96983.38;;;14.57;100.00
39843;BME280;25514;46.764;15.406;2022-09-09T05:19:24;96977.00;;;14.61;100.00
39843;BME280;25514;46.764;15.406;2022-09-09T05:21:49;96980.06;;;14.63;100.00
39843;BME280;25514;46.764;15.406;2022-09-09T05:24:15;96977.50;;;14.68;100.00
39843;BME280;25514;46.764;15.406;2022-09-09T05:26:41;96982.84;;;14.72;100.00
39843;BME280;25514;46.764;15.406;2022-09-09T05:29:07;96983.94;;;14.74;100.00
39843;BME280;25514;46.764;15.406;2022-09-09T05:31:33;96983.19;;;14.74;100.00
39843;BME280;25514;46.764;15.406;2022-09-09T05:33:58;96974.94;;;14.74;100.00
39843;BME280;25514;46.764;15.406;2022-09-09T05:36:24;96968.19;;;14.75;100.00
39843;BME280;25514;46.764;15.406;2022-09-09T05:38:49;96972.78;;;14.78;100.00
39843;BME280;25514;46.764;15.406;2022-09-09T05:41:15;96983.19;;;14.83;100.00
39843;BME280;25514;46.764;15.406;2022-09-09T05:43:42;96973.78;;;14.94;100.00
39843;BME280;25514;46.764;15.406;2022-09-09T05:46:13;96973.03;;;15.02;100.00
39843;BME280;25514;46.764;15.406;2022-09-09T05:48:40;96975.03;;;15.11;100.00
39843;BME280;25514;46.764;15.406;2022-09-09T05:51:06;96990.38;;;15.21;100.00
39843;BME280;25514;46.764;15.406;2022-09-09T05:53:31;97000.03;;;15.35;100.00
39843;BME280;25514;46.764;15.406;2022-09-09T05:56:07;97001.09;;;15.47;100.00
39843;BME280;25514;46.764;15.406;2022-09-09T05:58:36;97000.66;;;15.58;100.00
39843;BME280;25514;46.764;15.406;2022-09-09T06:01:05;96999.31;;;15.72;100.00
39843;BME280;25514;46.764;15.406;2022-09-09T06:03:31;97002.25;;;15.77;100.00
39843;BME280;25514;46.764;15.406;2022-09-09T06:05:57;97012.19;;;15.84;100.00
39843;BME280;25514;46.764;15.406;2022-09-09T06:08:23;97016.78;;;15.87;100.00
39843;BME280;25514;46.764;15.406;2022-09-09T06:10:49;97009.44;;;15.93;100.00
39843;BME280;25514;46.764;15.406;2022-09-09T06:13:14;97013.13;;;15.99;100.00
39843;BME280;25514;46.764;15.406;2022-09-09T06:15:39;97001.63;;;16.01;100.00
39843;BME280;25514;46.764;15.406;2022-09-09T06:18:14;97001.00;;;16.06;100.00
39843;BME280;25514;46.764;15.406;2022-09-09T06:20:52;97006.97;;;16.14;100.00
39843;BME280;25514;46.764;15.406;2022-09-09T06:23:18;97002.84;;;16.18;100.00
39843;BME280;25514;46.764;15.406;2022-09-09T06:25:45;96994.72;;;16.24;99.47
39843;BME280;25514;46.764;15.406;2022-09-09T06:28:11;96997.94;;;16.23;97.96
39843;BME280;25514;46.764;15.406;2022-09-09T06:30:36;96998.38;;;16.30;97.65
39843;BME280;25514;46.764;15.406;2022-09-09T06:33:02;96997.47;;;16.33;96.25
39843;BME280;25514;46.764;15.406;2022-09-09T06:35:27;97005.28;;;16.35;95.05
39843;BME280;25514;46.764;15.406;2022-09-09T06:37:53;96998.03;;;16.38;94.67
39843;BME280;25514;46.764;15.406;2022-09-09T06:40:18;96994.81;;;16.39;94.61
39843;BME280;25514;46.764;15.406;2022-09-09T06:42:44;96995.72;;;16.45;95.31
39843;BME280;25514;46.764;15.406;2022-09-09T06:45:13;96999.28;;;16.46;95.06
39843;BME280;25514;46.764;15.406;2022-09-09T06:47:38;96996.97;;;16.44;94.42
39843;BME280;25514;46.764;15.406;2022-09-09T06:50:03;97004.78;;;16.46;94.10
39843;BME280;25514;46.764;15.406;2022-09-09T06:52:30;97012.59;;;16.47;94.02
39843;BME280;25514;46.764;15.406;2022-09-09T06:54:56;97009.84;;;16.47;94.33
39843;BME280;25514;46.764;15.406;2022-09-09T06:57:23;97011.81;;;16.47;93.49
39843;BME280;25514;46.764;15.406;2022-09-09T06:59:49;97008.13;;;16.50;93.67
39843;BME280;25514;46.764;15.406;2022-09-09T07:02:14;97012.44;;;16.51;93.38
39843;BME280;25514;46.764;15.406;2022-09-09T07:04:39;97012.72;;;16.53;93.41
39843;BME280;25514;46.764;15.406;2022-09-09T07:07:05;97003.84;;;16.58;92.98
39843;BME280;25514;46.764;15.406;2022-09-09T07:09:30;97013.31;;;16.66;92.62
39843;BME280;25514;46.764;15.406;2022-09-09T07:11:56;97016.34;;;16.68;91.00
39843;BME280;25514;46.764;15.406;2022-09-09T07:14:23;97006.88;;;16.69;90.63
39843;BME280;25514;46.764;15.406;2022-09-09T07:16:48;97013.13;;;16.70;90.30
39843;BME280;25514;46.764;15.406;2022-09-09T07:19:13;97013.00;;;16.74;90.42
39843;BME280;25514;46.764;15.406;2022-09-09T07:21:39;97012.38;;;16.69;89.84
39843;BME280;25514;46.764;15.406;2022-09-09T07:24:08;97007.16;;;16.71;90.77
39843;BME280;25514;46.764;15.406;2022-09-09T07:26:35;97016.66;;;16.80;91.77
39843;BME280;25514;46.764;15.406;2022-09-09T07:29:01;97017.22;;;16.84;90.15
39843;BME280;25514;46.764;15.406;2022-09-09T07:31:27;97016.78;;;16.85;90.03
39843;BME280;25514;46.764;15.406;2022-09-09T07:33:55;97015.41;;;16.90;88.75
39843;BME280;25514;46.764;15.406;2022-09-09T07:36:22;97008.00;;;16.96;89.24
39843;BME280;25514;46.764;15.406;2022-09-09T07:38:49;97002.16;;;17.03;89.44
39843;BME280;25514;46.764;15.406;2022-09-09T07:41:26;97009.16;;;17.14;87.96
39843;BME280;25514;46.764;15.406;2022-09-09T07:43:52;97008.78;;;17.30;87.06
39843;BME280;25514;46.764;15.406;2022-09-09T07:46:22;97004.78;;;17.55;85.15
39843;BME280;25514;46.764;15.406;2022-09-09T07:48:48;97011.88;;;17.71;82.87
39843;BME280;25514;46.764;15.406;2022-09-09T07:51:18;97010.31;;;17.79;79.50
39843;BME280;25514;46.764;15.406;2022-09-09T07:53:48;97013.72;;;17.99;73.18
39843;BME280;25514;46.764;15.406;2022-09-09T07:56:15;97011.97;;;18.40;75.70
39843;BME280;25514;46.764;15.406;2022-09-09T07:58:42;97010.81;;;18.92;69.14
39843;BME280;25514;46.764;15.406;2022-09-09T08:01:17;97012.88;;;18.97;67.61
39843;BME280;25514;46.764;15.406;2022-09-09T08:03:44;97010.38;;;19.14;67.04
39843;BME280;25514;46.764;15.406;2022-09-09T08:06:09;97002.13;;;19.19;65.15
39843;BME280;25514;46.764;15.406;2022-09-09T08:08:35;97008.25;;;19.24;67.15
39843;BME280;25514;46.764;15.406;2022-09-09T08:13:33;97009.97;;;19.98;65.20
39843;BME280;25514;46.764;15.406;2022-09-09T08:16:09;97014.56;;;20.06;61.47
39843;BME280;25514;46.764;15.406;2022-09-09T08:18:34;97012.53;;;20.27;62.32
39843;BME280;25514;46.764;15.406;2022-09-09T08:21:10;97013.47;;;20.45;63.19
39843;BME280;25514;46.764;15.406;2022-09-09T08:23:39;97019.16;;;20.88;66.26
39843;BME280;25514;46.764;15.406;2022-09-09T08:26:09;97024.13;;;21.16;62.08
39843;BME280;25514;46.764;15.406;2022-09-09T08:28:35;97033.56;;;21.24;60.89
39843;BME280;25514;46.764;15.406;2022-09-09T08:31:11;97033.19;;;21.05;59.48
39843;BME280;25514;46.764;15.406;2022-09-09T08:33:36;97041.47;;;20.99;62.87
39843;BME280;25514;46.764;15.406;2022-09-09T08:36:03;97037.50;;;21.12;63.35
39843;BME280;25514;46.764;15.406;2022-09-09T08:38:29;97035.75;;;21.14;61.62
39843;BME280;25514;46.764;15.406;2022-09-09T08:40:55;97036.44;;;21.04;60.14
39843;BME280;25514;46.764;15.406;2022-09-09T08:43:24;97016.78;;;21.13;61.54
39843;BME280;25514;46.764;15.406;2022-09-09T08:48:25;97020.78;;;21.00;59.62
39843;BME280;25514;46.764;15.406;2022-09-09T08:50:55;97017.50;;;21.02;61.57
39843;BME280;25514;46.764;15.406;2022-09-09T08:53:27;97020.16;;;21.23;60.01
39843;BME280;25514;46.764;15.406;2022-09-09T08:55:57;97006.53;;;21.73;59.93
39843;BME280;25514;46.764;15.406;2022-09-09T08:58:32;97002.84;;;22.11;55.56
39843;BME280;25514;46.764;15.406;2022-09-09T09:08:43;96997.66;;;23.03;54.06
39843;BME280;25514;46.764;15.406;2022-09-09T09:11:13;97000.41;;;23.31;54.15
39843;BME280;25514;46.764;15.406;2022-09-09T09:18:53;96995.56;;;24.49;54.19
39843;BME280;25514;46.764;15.406;2022-09-09T09:24:00;96998.53;;;24.63;52.78
39843;BME280;25514;46.764;15.406;2022-09-09T09:26:30;96995.50;;;24.61;51.07
39843;BME280;25514;46.764;15.406;2022-09-09T09:28:57;96996.03;;;24.53;50.75
39843;BME280;25514;46.764;15.406;2022-09-09T09:31:24;97002.09;;;24.21;50.38
39843;BME280;25514;46.764;15.406;2022-09-09T09:33:51;97013.63;;;24.01;51.76
39843;BME280;25514;46.764;15.406;2022-09-09T09:36:18;97014.69;;;23.86;52.12
39843;BME280;25514;46.764;15.406;2022-09-09T09:38:56;97010.22;;;23.49;51.56
39843;BME280;25514;46.764;15.406;2022-09-09T09:41:55;97005.19;;;23.42;54.35
39843;BME280;25514;46.764;15.406;2022-09-09T09:46:45;97001.13;;;23.43;55.42
39843;BME280;25514;46.764;15.406;2022-09-09T09:49:10;97010.53;;;23.35;55.15
39843;BME280;25514;46.764;15.406;2022-09-09T09:51:35;97001.66;;;23.25;54.12
39843;BME280;25514;46.764;15.406;2022-09-09T09:54:15;97001.19;;;23.21;55.59
39843;BME280;25514;46.764;15.406;2022-09-09T09:56:43;97001.66;;;23.25;55.48
39843;BME280;25514;46.764;15.406;2022-09-09T09:59:19;96990.25;;;23.34;54.27
39843;BME280;25514;46.764;15.406;2022-09-09T10:01:45;96983.63;;;23.48;54.62
39843;BME280;25514;46.764;15.406;2022-09-09T10:04:18;96977.22;;;23.71;54.61
39843;BME280;25514;46.764;15.406;2022-09-09T10:06:45;96980.44;;;24.33;54.99
39843;BME280;25514;46.764;15.406;2022-09-09T10:09:26;96979.94;;;24.71;52.03
39843;BME280;25514;46.764;15.406;2022-09-09T10:14:52;96993.25;;;24.53;51.86
39843;BME280;25514;46.764;15.406;2022-09-09T10:17:32;96981.06;;;24.51;52.62
39843;BME280;25514;46.764;15.406;2022-09-09T10:22:34;96973.78;;;24.78;52.63
39843;BME280;25514;46.764;15.406;2022-09-09T10:35:29;96956.53;;;24.38;49.53
39843;BME280;25514;46.764;15.406;2022-09-09T10:38:14;96960.69;;;24.26;50.29
39843;BME280;25514;46.764;15.406;2022-09-09T10:40:46;96960.47;;;24.18;49.78
39843;BME280;25514;46.764;15.406;2022-09-09T10:45:49;96957.25;;;24.08;51.33
39843;BME280;25514;46.764;15.406;2022-09-09T10:48:42;96954.25;;;24.00;50.08
39843;BME280;25514;46.764;15.406;2022-09-09T10:51:21;96957.53;;;24.04;49.16
39843;BME280;25514;46.764;15.406;2022-09-09T10:56:14;96953.25;;;24.34;49.05
39843;BME280;25514;46.764;15.406;2022-09-09T10:58:46;96955.72;;;24.07;52.06
39843;BME280;25514;46.764;15.406;2022-09-09T11:01:15;96948.56;;;24.17;53.89
39843;BME280;25514;46.764;15.406;2022-09-09T11:03:41;96936.75;;;24.36;53.68
39843;BME280;25514;46.764;15.406;2022-09-09T11:06:14;96929.09;;;24.42;52.39
39843;BME280;25514;46.764;15.406;2022-09-09T11:08:42;96920.19;;;24.44;51.93
39843;BME280;25514;46.764;15.406;2022-09-09T11:11:13;96909.44;;;24.59;52.83
39843;BME280;25514;46.764;15.406;2022-09-09T11:16:22;96901.81;;;24.23;52.98
39843;BME280;25514;46.764;15.406;2022-09-09T11:18:50;96913.09;;;24.07;53.35
39843;BME280;25514;46.764;15.406;2022-09-09T11:21:24;96911.69;;;23.89;52.55
39843;BME280;25514;46.764;15.406;2022-09-09T11:23:56;96931.47;;;23.91;54.25
39843;BME280;25514;46.764;15.406;2022-09-09T11:26:44;96939.28;;;23.98;53.62
39843;BME280;25514;46.764;15.406;2022-09-09T11:31:42;96929.41;;;23.97;54.09
39843;BME280;25514;46.764;15.406;2022-09-09T11:39:27;96922.06;;;23.29;55.22
39843;BME280;25514;46.764;15.406;2022-09-09T11:42:05;96913.53;;;22.99;56.49
39843;BME280;25514;46.764;15.406;2022-09-09T11:44:31;96905.22;;;22.82;59.13
39843;BME280;25514;46.764;15.406;2022-09-09T11:46:57;96902.69;;;22.73;56.86
39843;BME280;25514;46.764;15.406;2022-09-09T11:49:27;96894.88;;;22.37;58.14
39843;BME280;25514;46.764;15.406;2022-09-09T11:51:53;96899.38;;;22.23;59.63
39843;BME280;25514;46.764;15.406;2022-09-09T11:54:33;96896.88;;;22.20;61.19
39843;BME280;25514;46.764;15.406;2022-09-09T11:57:25;96896.91;;;22.37;59.26
39843;BME280;25514;46.764;15.406;2022-09-09T11:59:51;96890.28;;;22.12;58.93
39843;BME280;25514;46.764;15.406;2022-09-09T12:02:27;96886.47;;;22.09;60.94
39843;BME280;25514;46.764;15.406;2022-09-09T12:05:00;96887.50;;;22.17;62.70
39843;BME280;25514;46.764;15.406;2022-09-09T12:10:02;96871.84;;;22.31;61.70
39843;BME280;25514;46.764;15.406;2022-09-09T12:12:32;96873.09;;;22.41;61.07
39843;BME280;25514;46.764;15.406;2022-09-09T12:17:25;96855.13;;;22.54;60.41
39843;BME280;25514;46.764;15.406;2022-09-09T12:20:34;96847.78;;;22.51;60.05
39843;BME280;25514;46.764;15.406;2022-09-09T12:25:23;96857.66;;;22.29;60.49
39843;BME280;25514;46.764;15.406;2022-09-09T12:30:22;96856.91;;;22.00;61.95
39843;BME280;25514;46.764;15.406;2022-09-09T12:33:13;96853.63;;;22.02;62.41
39843;BME280;25514;46.764;15.406;2022-09-09T12:35:41;96855.09;;;21.92;62.17
39843;BME280;25514;46.764;15.406;2022-09-09T12:38:10;96858.59;;;21.64;62.81
39843;BME280;25514;46.764;15.406;2022-09-09T12:40:38;96860.88;;;21.54;61.32
39843;BME280;25514;46.764;15.406;2022-09-09T12:43:21;96860.00;;;21.31;63.46
39843;BME280;25514;46.764;15.406;2022-09-09T12:45:47;96863.25;;;21.18;63.40
39843;BME280;25514;46.764;15.406;2022-09-09T12:48:15;96858.84;;;20.94;63.54
39843;BME280;25514;46.764;15.406;2022-09-09T12:50:50;96849.25;;;20.95;65.23
39843;BME280;25514;46.764;15.406;2022-09-09T12:55:49;96853.34;;;21.06;65.24
39843;BME280;25514;46.764;15.406;2022-09-09T12:58:18;96856.06;;;20.94;65.11
39843;BME280;25514;46.764;15.406;2022-09-09T13:00:53;96861.09;;;20.90;65.49
39843;BME280;25514;46.764;15.406;2022-09-09T13:03:21;96862.63;;;20.91;67.73
39843;BME280;25514;46.764;15.406;2022-09-09T13:05:47;96858.91;;;21.06;67.44
39843;BME280;25514;46.764;15.406;2022-09-09T13:08:13;96860.97;;;21.16;70.17
39843;BME280;25514;46.764;15.406;2022-09-09T13:13:05;96857.69;;;21.24;69.84
39843;BME280;25514;46.764;15.406;2022-09-09T13:15:38;96859.72;;;21.23;68.18
39843;BME280;25514;46.764;15.406;2022-09-09T13:18:04;96850.34;;;21.21;70.31
39843;BME280;25514;46.764;15.406;2022-09-09T13:20:31;96846.03;;;21.14;70.77
39843;BME280;25514;46.764;15.406;2022-09-09T13:22:57;96845.03;;;21.17;71.27
39843;BME280;25514;46.764;15.406;2022-09-09T13:25:26;96840.25;;;21.17;70.96
39843;BME280;25514;46.764;15.406;2022-09-09T13:27:54;96845.03;;;21.17;72.71
39843;BME280;25514;46.764;15.406;2022-09-09T13:35:54;96821.81;;;21.20;72.21
39843;BME280;25514;46.764;15.406;2022-09-09T13:38:20;96828.38;;;21.17;72.27
39843;BME280;25514;46.764;15.406;2022-09-09T13:40:56;96824.56;;;21.14;72.85
39843;BME280;25514;46.764;15.406;2022-09-09T13:43:23;96825.53;;;21.00;70.07
39843;BME280;25514;46.764;15.406;2022-09-09T13:45:53;96824.75;;;20.88;73.10
39843;BME280;25514;46.764;15.406;2022-09-09T13:48:18;96828.75;;;20.87;71.96
39843;BME280;25514;46.764;15.406;2022-09-09T13:50:53;96823.25;;;20.93;73.69
39843;BME280;25514;46.764;15.406;2022-09-09T13:53:18;96815.16;;;20.95;72.73
39843;BME280;25514;46.764;15.406;2022-09-09T13:55:43;96820.75;;;21.00;72.92
39843;BME280;25514;46.764;15.406;2022-09-09T13:58:14;96813.66;;;20.99;72.41
39843;BME280;25514;46.764;15.406;2022-09-09T14:00:40;96815.41;;;20.97;72.96
39843;BME280;25514;46.764;15.406;2022-09-09T14:03:06;96822.69;;;20.83;68.67
39843;BME280;25514;46.764;15.406;2022-09-09T14:05:32;96833.19;;;20.68;72.36
39843;BME280;25514;46.764;15.406;2022-09-09T14:07:58;96834.72;;;20.69;71.44
39843;BME280;25514;46.764;15.406;2022-09-09T14:10:25;96835.97;;;20.68;74.65
39843;BME280;25514;46.764;15.406;2022-09-09T14:12:51;96829.16;;;20.69;73.93
39843;BME280;25514;46.764;15.406;2022-09-09T14:15:16;96833.47;;;20.70;74.91
39843;BME280;25514;46.764;15.406;2022-09-09T14:17:41;96831.44;;;20.70;78.91
39843;BME280;25514;46.764;15.406;2022-09-09T14:20:07;96832.44;;;20.67;78.15
39843;BME280;25514;46.764;15.406;2022-09-09T14:22:33;96831.69;;;20.67;80.94
39843;BME280;25514;46.764;15.406;2022-09-09T14:24:59;96830.69;;;20.70;81.06
39843;BME280;25514;46.764;15.406;2022-09-09T14:27:24;96825.66;;;20.74;80.11
39843;BME280;25514;46.764;15.406;2022-09-09T14:29:51;96822.91;;;20.79;79.94
39843;BME280;25514;46.764;15.406;2022-09-09T14:32:17;96821.63;;;20.75;77.79
39843;BME280;25514;46.764;15.406;2022-09-09T14:34:42;96813.00;;;20.67;80.29
39843;BME280;25514;46.764;15.406;2022-09-09T14:37:07;96817.81;;;20.72;80.71
39843;BME280;25514;46.764;15.406;2022-09-09T14:39:33;96813.56;;;20.77;78.44
39843;BME280;25514;46.764;15.406;2022-09-09T14:41:58;96806.75;;;20.78;78.31
39843;BME280;25514;46.764;15.406;2022-09-09T14:44:23;96807.13;;;20.59;75.86
39843;BME280;25514;46.764;15.406;2022-09-09T14:46:49;96808.03;;;20.39;76.47
39843;BME280;25514;46.764;15.406;2022-09-09T14:49:18;96821.41;;;20.41;78.88